sensor_id;sensor_type;location;lat;lon;timestamp;pressure;altitude;pressure_sealevel;temperature
63689;BMP280;54895;40.928;14.480;2022-11-15T00:02:28;101617.81;;;19.08
63689;BMP280;54895;40.928;14.480;2022-11-15T00:05:13;101634.63;;;19.24
63689;BMP280;54895;40.928;14.480;2022-11-15T00:08:00;101630.56;;;19.15
63689;BMP280;54895;40.928;14.480;2022-11-15T00:10:58;101602.41;;;18.70
63689;BMP280;54895;40.928;14.480;2022-11-15T00:13:42;101597.53;;;19.00
63689;BMP280;54895;40.928;14.480;2022-11-15T00:16:28;101642.16;;;19.25
63689;BMP280;54895;40.928;14.480;2022-11-15T00:19:13;101654.72;;;19.30
63689;BMP280;54895;40.928;14.480;2022-11-15T00:21:57;101630.81;;;19.02
63689;BMP280;54895;40.928;14.480;2022-11-15T00:24:42;101609.38;;;18.73
63689;BMP280;54895;40.928;14.480;2022-11-15T00:27:27;101609.38;;;18.80
63689;BMP280;54895;40.928;14.480;2022-11-15T00:30:12;101618.75;;;18.72
63689;BMP280;54895;40.928;14.480;2022-11-15T00:33:01;101619.38;;;18.94
63689;BMP280;54895;40.928;14.480;2022-11-15T00:35:46;101602.91;;;18.76
63689;BMP280;54895;40.928;14.480;2022-11-15T00:38:34;101600.63;;;18.65
63689;BMP280;54895;40.928;14.480;2022-11-15T00:41:19;101596.47;;;18.71
63689;BMP280;54895;40.928;14.480;2022-11-15T00:44:04;101571.75;;;18.50
63689;BMP280;54895;40.928;14.480;2022-11-15T00:46:49;101581.25;;;18.59
63689;BMP280;54895;40.928;14.480;2022-11-15T00:49:34;101579.09;;;18.57
63689;BMP280;54895;40.928;14.480;2022-11-15T00:52:19;101583.09;;;18.49
63689;BMP280;54895;40.928;14.480;2022-11-15T00:55:04;101575.34;;;18.53
63689;BMP280;54895;40.928;14.480;2022-11-15T00:57:49;101599.75;;;18.62
63689;BMP280;54895;40.928;14.480;2022-11-15T01:00:34;101599.03;;;18.62
63689;BMP280;54895;40.928;14.480;2022-11-15T01:07:10;101632.84;;;18.94
63689;BMP280;54895;40.928;14.480;2022-11-15T01:09:55;101604.22;;;18.60
63689;BMP280;54895;40.928;14.480;2022-11-15T01:12:40;101583.28;;;18.51
63689;BMP280;54895;40.928;14.480;2022-11-15T01:15:24;101589.34;;;18.51
63689;BMP280;54895;40.928;14.480;2022-11-15T01:18:24;101559.09;;;18.28
63689;BMP280;54895;40.928;14.480;2022-11-15T01:21:15;101590.97;;;18.54
63689;BMP280;54895;40.928;14.480;2022-11-15T01:24:00;101597.25;;;18.57
63689;BMP280;54895;40.928;14.480;2022-11-15T01:26:45;101571.13;;;18.35
63689;BMP280;54895;40.928;14.480;2022-11-15T01:29:31;101558.63;;;18.15
63689;BMP280;54895;40.928;14.480;2022-11-15T01:32:16;101528.88;;;17.98
63689;BMP280;54895;40.928;14.480;2022-11-15T01:35:01;101532.25;;;18.06
63689;BMP280;54895;40.928;14.480;2022-11-15T01:37:45;101524.91;;;18.06
63689;BMP280;54895;40.928;14.480;2022-11-15T01:40:30;101538.69;;;18.18
63689;BMP280;54895;40.928;14.480;2022-11-15T01:43:27;101531.72;;;18.00
63689;BMP280;54895;40.928;14.480;2022-11-15T01:49:00;101526.88;;;17.98
63689;BMP280;54895;40.928;14.480;2022-11-15T01:51:47;101530.63;;;18.18
63689;BMP280;54895;40.928;14.480;2022-11-15T01:54:32;101544.88;;;18.35
63689;BMP280;54895;40.928;14.480;2022-11-15T01:57:17;101561.22;;;18.45
63689;BMP280;54895;40.928;14.480;2022-11-15T02:00:04;101561.22;;;18.45
63689;BMP280;54895;40.928;14.480;2022-11-15T02:02:50;101552.03;;;18.48
63689;BMP280;54895;40.928;14.480;2022-11-15T02:05:36;101557.78;;;18.44
63689;BMP280;54895;40.928;14.480;2022-11-15T02:08:21;101554.56;;;18.38
63689;BMP280;54895;40.928;14.480;2022-11-15T02:11:09;101558.31;;;18.43
63689;BMP280;54895;40.928;14.480;2022-11-15T02:13:55;101548.13;;;18.34
63689;BMP280;54895;40.928;14.480;2022-11-15T02:17:07;101568.25;;;18.33
63689;BMP280;54895;40.928;14.480;2022-11-15T02:20:09;101553.56;;;18.19
63689;BMP280;54895;40.928;14.480;2022-11-15T02:23:27;101550.72;;;18.17
63689;BMP280;54895;40.928;14.480;2022-11-15T02:29:11;101568.16;;;18.08
63689;BMP280;54895;40.928;14.480;2022-11-15T02:34:56;101558.28;;;18.11
63689;BMP280;54895;40.928;14.480;2022-11-15T02:37:56;101568.53;;;18.12
63689;BMP280;54895;40.928;14.480;2022-11-15T02:40:44;101592.34;;;18.31
63689;BMP280;54895;40.928;14.480;2022-11-15T02:49:48;101623.09;;;18.60
63689;BMP280;54895;40.928;14.480;2022-11-15T02:52:33;101581.94;;;18.20
63689;BMP280;54895;40.928;14.480;2022-11-15T02:55:32;101563.47;;;18.09
63689;BMP280;54895;40.928;14.480;2022-11-15T03:11:13;101557.53;;;18.25
63689;BMP280;54895;40.928;14.480;2022-11-15T03:14:46;101548.75;;;18.10
63689;BMP280;54895;40.928;14.480;2022-11-15T03:17:32;101560.75;;;18.24
63689;BMP280;54895;40.928;14.480;2022-11-15T03:20:17;101554.31;;;18.12
63689;BMP280;54895;40.928;14.480;2022-11-15T03:23:08;101563.66;;;18.11
63689;BMP280;54895;40.928;14.480;2022-11-15T03:25:54;101561.31;;;18.15
63689;BMP280;54895;40.928;14.480;2022-11-15T03:28:47;101553.44;;;18.02
63689;BMP280;54895;40.928;14.480;2022-11-15T03:31:39;101531.41;;;17.81
63689;BMP280;54895;40.928;14.480;2022-11-15T03:34:50;101547.56;;;17.88
63689;BMP280;54895;40.928;14.480;2022-11-15T03:40:58;101557.28;;;17.84
63689;BMP280;54895;40.928;14.480;2022-11-15T03:47:03;101533.81;;;17.62
63689;BMP280;54895;40.928;14.480;2022-11-15T03:49:58;101530.03;;;17.65
63689;BMP280;54895;40.928;14.480;2022-11-15T03:52:44;101503.50;;;17.31
63689;BMP280;54895;40.928;14.480;2022-11-15T03:55:32;101483.75;;;17.29
63689;BMP280;54895;40.928;14.480;2022-11-15T03:58:17;101481.63;;;17.27
63689;BMP280;54895;40.928;14.480;2022-11-15T04:01:01;101477.69;;;17.21
63689;BMP280;54895;40.928;14.480;2022-11-15T04:07:43;101439.34;;;16.98
63689;BMP280;54895;40.928;14.480;2022-11-15T04:10:28;101471.06;;;17.22
63689;BMP280;54895;40.928;14.480;2022-11-15T04:13:13;101492.72;;;17.39
63689;BMP280;54895;40.928;14.480;2022-11-15T04:15:58;101496.88;;;17.25
63689;BMP280;54895;40.928;14.480;2022-11-15T04:18:43;101483.78;;;17.14
63689;BMP280;54895;40.928;14.480;2022-11-15T04:21:28;101495.44;;;17.24
63689;BMP280;54895;40.928;14.480;2022-11-15T04:24:31;101489.16;;;17.06
63689;BMP280;54895;40.928;14.480;2022-11-15T04:27:16;101486.28;;;17.12
63689;BMP280;54895;40.928;14.480;2022-11-15T04:30:01;101486.66;;;17.01
63689;BMP280;54895;40.928;14.480;2022-11-15T04:32:46;101493.09;;;16.98
63689;BMP280;54895;40.928;14.480;2022-11-15T04:35:30;101481.63;;;16.90
63689;BMP280;54895;40.928;14.480;2022-11-15T04:38:15;101501.34;;;17.00
63689;BMP280;54895;40.928;14.480;2022-11-15T04:41:00;101499.53;;;16.95
63689;BMP280;54895;40.928;14.480;2022-11-15T04:43:45;101488.44;;;16.83
63689;BMP280;54895;40.928;14.480;2022-11-15T04:46:30;101504.38;;;17.04
63689;BMP280;54895;40.928;14.480;2022-11-15T04:49:14;101516.22;;;17.01
63689;BMP280;54895;40.928;14.480;2022-11-15T04:51:59;101495.22;;;16.77
63689;BMP280;54895;40.928;14.480;2022-11-15T04:54:44;101521.41;;;16.91
63689;BMP280;54895;40.928;14.480;2022-11-15T04:57:29;101521.41;;;16.91
63689;BMP280;54895;40.928;14.480;2022-11-15T05:00:16;101519.25;;;16.90
63689;BMP280;54895;40.928;14.480;2022-11-15T05:03:01;101513.88;;;16.97
63689;BMP280;54895;40.928;14.480;2022-11-15T05:06:30;101547.63;;;17.21
63689;BMP280;54895;40.928;14.480;2022-11-15T05:09:17;101557.31;;;17.16
63689;BMP280;54895;40.928;14.480;2022-11-15T05:12:02;101566.63;;;17.23
63689;BMP280;54895;40.928;14.480;2022-11-15T05:14:47;101576.66;;;17.30
63689;BMP280;54895;40.928;14.480;2022-11-15T05:17:32;101576.66;;;17.30
63689;BMP280;54895;40.928;14.480;2022-11-15T05:20:16;101586.19;;;17.31
63689;BMP280;54895;40.928;14.480;2022-11-15T05:23:01;101614.34;;;17.60
63689;BMP280;54895;40.928;14.480;2022-11-15T05:25:45;101626.19;;;17.49
63689;BMP280;54895;40.928;14.480;2022-11-15T05:28:30;101622.22;;;17.43
63689;BMP280;54895;40.928;14.480;2022-11-15T05:31:16;101562.53;;;16.64
63689;BMP280;54895;40.928;14.480;2022-11-15T05:34:02;101574.97;;;16.82
63689;BMP280;54895;40.928;14.480;2022-11-15T05:36:48;101557.44;;;16.88
63689;BMP280;54895;40.928;14.480;2022-11-15T05:39:33;101547.38;;;16.74
63689;BMP280;54895;40.928;14.480;2022-11-15T05:42:18;101542.88;;;16.76
63689;BMP280;54895;40.928;14.480;2022-11-15T05:45:05;101555.06;;;16.85
63689;BMP280;54895;40.928;14.480;2022-11-15T05:47:51;101568.56;;;17.00
63689;BMP280;54895;40.928;14.480;2022-11-15T05:50:38;101569.81;;;16.99
63689;BMP280;54895;40.928;14.480;2022-11-15T05:53:25;101569.81;;;16.99
63689;BMP280;54895;40.928;14.480;2022-11-15T05:56:10;101609.16;;;17.32
63689;BMP280;54895;40.928;14.480;2022-11-15T05:58:57;101615.75;;;17.08
63689;BMP280;54895;40.928;14.480;2022-11-15T06:01:42;101606.41;;;17.09
63689;BMP280;54895;40.928;14.480;2022-11-15T06:08:11;101582.69;;;16.85
63689;BMP280;54895;40.928;14.480;2022-11-15T06:10:56;101585.94;;;16.99
63689;BMP280;54895;40.928;14.480;2022-11-15T06:13:41;101607.16;;;17.17
63689;BMP280;54895;40.928;14.480;2022-11-15T06:16:26;101625.47;;;17.34
63689;BMP280;54895;40.928;14.480;2022-11-15T06:19:11;101606.56;;;17.04
63689;BMP280;54895;40.928;14.480;2022-11-15T06:21:55;101614.69;;;17.26
63689;BMP280;54895;40.928;14.480;2022-11-15T06:24:40;101617.25;;;17.47
63689;BMP280;54895;40.928;14.480;2022-11-15T06:27:25;101621.00;;;17.59
63689;BMP280;54895;40.928;14.480;2022-11-15T06:30:10;101611.88;;;17.47
63689;BMP280;54895;40.928;14.480;2022-11-15T06:33:02;101605.75;;;17.54
63689;BMP280;54895;40.928;14.480;2022-11-15T06:35:47;101591.75;;;17.40
63689;BMP280;54895;40.928;14.480;2022-11-15T06:38:32;101580.59;;;17.29
63689;BMP280;54895;40.928;14.480;2022-11-15T06:41:17;101596.78;;;17.66
63689;BMP280;54895;40.928;14.480;2022-11-15T06:44:02;101623.31;;;17.92
63689;BMP280;54895;40.928;14.480;2022-11-15T06:46:47;101645.00;;;18.17
63689;BMP280;54895;40.928;14.480;2022-11-15T06:49:32;101645.00;;;18.09
63689;BMP280;54895;40.928;14.480;2022-11-15T06:52:17;101624.72;;;17.86
63689;BMP280;54895;40.928;14.480;2022-11-15T06:55:06;101605.03;;;17.76
63689;BMP280;54895;40.928;14.480;2022-11-15T06:57:52;101620.44;;;17.98
63689;BMP280;54895;40.928;14.480;2022-11-15T07:00:37;101621.84;;;18.14
63689;BMP280;54895;40.928;14.480;2022-11-15T07:03:22;101647.31;;;18.28
63689;BMP280;54895;40.928;14.480;2022-11-15T07:06:08;101653.19;;;18.49
63689;BMP280;54895;40.928;14.480;2022-11-15T07:08:53;101640.78;;;18.46
63689;BMP280;54895;40.928;14.480;2022-11-15T07:11:38;101644.22;;;18.39
63689;BMP280;54895;40.928;14.480;2022-11-15T07:14:23;101649.19;;;18.57
63689;BMP280;54895;40.928;14.480;2022-11-15T07:17:07;101668.94;;;18.67
63689;BMP280;54895;40.928;14.480;2022-11-15T07:19:52;101671.69;;;18.91
63689;BMP280;54895;40.928;14.480;2022-11-15T07:22:37;101666.38;;;19.08
63689;BMP280;54895;40.928;14.480;2022-11-15T07:25:22;101667.78;;;18.77
63689;BMP280;54895;40.928;14.480;2022-11-15T07:28:07;101659.75;;;18.70
63689;BMP280;54895;40.928;14.480;2022-11-15T07:30:52;101680.06;;;19.10
63689;BMP280;54895;40.928;14.480;2022-11-15T07:33:37;101679.38;;;19.02
63689;BMP280;54895;40.928;14.480;2022-11-15T07:36:22;101664.59;;;19.03
63689;BMP280;54895;40.928;14.480;2022-11-15T07:39:07;101650.97;;;19.01
63689;BMP280;54895;40.928;14.480;2022-11-15T07:41:52;101676.59;;;19.42
63689;BMP280;54895;40.928;14.480;2022-11-15T07:44:56;101693.44;;;19.74
63689;BMP280;54895;40.928;14.480;2022-11-15T07:47:45;101686.31;;;19.86
63689;BMP280;54895;40.928;14.480;2022-11-15T07:50:30;101688.41;;;19.95
63689;BMP280;54895;40.928;14.480;2022-11-15T07:53:15;101690.81;;;20.08
63689;BMP280;54895;40.928;14.480;2022-11-15T07:56:00;101689.75;;;20.38
63689;BMP280;54895;40.928;14.480;2022-11-15T07:58:45;101700.81;;;20.49
63689;BMP280;54895;40.928;14.480;2022-11-15T08:01:31;101699.69;;;20.52
63689;BMP280;54895;40.928;14.480;2022-11-15T08:04:16;101712.72;;;20.63
63689;BMP280;54895;40.928;14.480;2022-11-15T08:07:00;101719.28;;;20.86
63689;BMP280;54895;40.928;14.480;2022-11-15T08:09:46;101707.00;;;20.59
63689;BMP280;54895;40.928;14.480;2022-11-15T08:12:30;101705.25;;;20.71
63689;BMP280;54895;40.928;14.480;2022-11-15T08:15:15;101701.84;;;20.80
63689;BMP280;54895;40.928;14.480;2022-11-15T08:18:03;101708.38;;;20.77
63689;BMP280;54895;40.928;14.480;2022-11-15T08:20:48;101702.78;;;20.92
63689;BMP280;54895;40.928;14.480;2022-11-15T08:23:33;101704.19;;;20.93
63689;BMP280;54895;40.928;14.480;2022-11-15T08:26:18;101697.97;;;21.00
63689;BMP280;54895;40.928;14.480;2022-11-15T08:29:03;101703.91;;;20.89
63689;BMP280;54895;40.928;14.480;2022-11-15T08:31:48;101704.00;;;21.08
63689;BMP280;54895;40.928;14.480;2022-11-15T08:34:33;101707.72;;;21.48
63689;BMP280;54895;40.928;14.480;2022-11-15T08:37:18;101715.13;;;21.12
63689;BMP280;54895;40.928;14.480;2022-11-15T08:40:03;101725.75;;;21.72
63689;BMP280;54895;40.928;14.480;2022-11-15T08:42:48;101729.34;;;21.94
63689;BMP280;54895;40.928;14.480;2022-11-15T08:45:34;101739.88;;;21.90
63689;BMP280;54895;40.928;14.480;2022-11-15T08:48:19;101727.34;;;21.85
63689;BMP280;54895;40.928;14.480;2022-11-15T08:51:04;101729.53;;;22.15
63689;BMP280;54895;40.928;14.480;2022-11-15T08:53:48;101739.03;;;22.53
63689;BMP280;54895;40.928;14.480;2022-11-15T08:56:33;101729.34;;;22.50
63689;BMP280;54895;40.928;14.480;2022-11-15T08:59:18;101741.19;;;22.64
63689;BMP280;54895;40.928;14.480;2022-11-15T09:02:04;101747.41;;;22.95
63689;BMP280;54895;40.928;14.480;2022-11-15T09:04:49;101749.91;;;23.12
63689;BMP280;54895;40.928;14.480;2022-11-15T09:07:34;101758.25;;;23.35
63689;BMP280;54895;40.928;14.480;2022-11-15T09:10:18;101747.88;;;22.82
63689;BMP280;54895;40.928;14.480;2022-11-15T09:13:03;101745.59;;;22.69
63689;BMP280;54895;40.928;14.480;2022-11-15T09:15:49;101737.81;;;22.94
63689;BMP280;54895;40.928;14.480;2022-11-15T09:18:34;101732.69;;;22.89
63689;BMP280;54895;40.928;14.480;2022-11-15T09:21:20;101728.44;;;22.76
63689;BMP280;54895;40.928;14.480;2022-11-15T09:24:05;101725.38;;;23.01
63689;BMP280;54895;40.928;14.480;2022-11-15T09:26:51;101724.34;;;23.15
63689;BMP280;54895;40.928;14.480;2022-11-15T09:29:36;101726.19;;;23.13
63689;BMP280;54895;40.928;14.480;2022-11-15T09:32:21;101720.72;;;23.22
63689;BMP280;54895;40.928;14.480;2022-11-15T09:35:09;101718.78;;;23.34
63689;BMP280;54895;40.928;14.480;2022-11-15T09:37:54;101707.72;;;23.51
63689;BMP280;54895;40.928;14.480;2022-11-15T09:40:39;101716.59;;;23.63
63689;BMP280;54895;40.928;14.480;2022-11-15T09:46:44;101704.88;;;24.02
63689;BMP280;54895;40.928;14.480;2022-11-15T09:49:45;101707.88;;;24.18
63689;BMP280;54895;40.928;14.480;2022-11-15T09:52:23;101703.19;;;24.30
63689;BMP280;54895;40.928;14.480;2022-11-15T09:54:51;101706.75;;;24.44
63689;BMP280;54895;40.928;14.480;2022-11-15T10:00:42;101707.13;;;24.50
63689;BMP280;54895;40.928;14.480;2022-11-15T10:03:13;101697.34;;;24.91
63689;BMP280;54895;40.928;14.480;2022-11-15T10:05:41;101707.16;;;25.07
63689;BMP280;54895;40.928;14.480;2022-11-15T10:08:30;101705.63;;;25.15
63689;BMP280;54895;40.928;14.480;2022-11-15T10:11:07;101697.72;;;25.56
63689;BMP280;54895;40.928;14.480;2022-11-15T10:13:37;101709.38;;;25.81
63689;BMP280;54895;40.928;14.480;2022-11-15T10:21:29;101690.78;;;25.66
63689;BMP280;54895;40.928;14.480;2022-11-15T10:23:58;101669.38;;;25.24
63689;BMP280;54895;40.928;14.480;2022-11-15T10:26:25;101673.53;;;25.50
63689;BMP280;54895;40.928;14.480;2022-11-15T10:28:51;101672.41;;;25.30
63689;BMP280;54895;40.928;14.480;2022-11-15T10:31:28;101679.78;;;25.16
63689;BMP280;54895;40.928;14.480;2022-11-15T10:34:13;101667.97;;;25.01
63689;BMP280;54895;40.928;14.480;2022-11-15T10:36:45;101665.75;;;24.86
63689;BMP280;54895;40.928;14.480;2022-11-15T10:39:13;101669.88;;;24.87
63689;BMP280;54895;40.928;14.480;2022-11-15T10:41:41;101660.66;;;24.80
63689;BMP280;54895;40.928;14.480;2022-11-15T10:44:30;101652.47;;;24.57
63689;BMP280;54895;40.928;14.480;2022-11-15T10:49:25;101656.38;;;25.11
63689;BMP280;54895;40.928;14.480;2022-11-15T10:52:20;101650.94;;;25.36
63689;BMP280;54895;40.928;14.480;2022-11-15T10:57:23;101647.63;;;23.89
63689;BMP280;54895;40.928;14.480;2022-11-15T10:59:53;101641.47;;;24.67
63689;BMP280;54895;40.928;14.480;2022-11-15T11:02:37;101623.50;;;24.62
63689;BMP280;54895;40.928;14.480;2022-11-15T11:10:29;101623.63;;;23.97
63689;BMP280;54895;40.928;14.480;2022-11-15T11:12:55;101612.22;;;23.24
63689;BMP280;54895;40.928;14.480;2022-11-15T11:15:24;101614.09;;;22.61
63689;BMP280;54895;40.928;14.480;2022-11-15T11:18:05;101606.50;;;23.20
63689;BMP280;54895;40.928;14.480;2022-11-15T11:20:40;101607.41;;;23.55
63689;BMP280;54895;40.928;14.480;2022-11-15T11:23:20;101602.31;;;23.82
63689;BMP280;54895;40.928;14.480;2022-11-15T11:34:34;101590.84;;;25.46
63689;BMP280;54895;40.928;14.480;2022-11-15T11:42:39;101574.47;;;26.49
63689;BMP280;54895;40.928;14.480;2022-11-15T11:48:44;101572.56;;;26.52
63689;BMP280;54895;40.928;14.480;2022-11-15T11:50:45;101548.97;;;26.58
63689;BMP280;54895;40.928;14.480;2022-11-15T11:53:31;101568.88;;;25.30
63689;BMP280;54895;40.928;14.480;2022-11-15T11:59:28;101548.50;;;25.31
63689;BMP280;54895;40.928;14.480;2022-11-15T12:02:02;101542.06;;;24.66
63689;BMP280;54895;40.928;14.480;2022-11-15T12:04:40;101554.59;;;25.43
63689;BMP280;54895;40.928;14.480;2022-11-15T12:07:31;101543.09;;;25.45
63689;BMP280;54895;40.928;14.480;2022-11-15T12:12:52;101544.22;;;25.78
63689;BMP280;54895;40.928;14.480;2022-11-15T12:15:56;101537.50;;;25.54
63689;BMP280;54895;40.928;14.480;2022-11-15T12:18:18;101530.59;;;25.53
63689;BMP280;54895;40.928;14.480;2022-11-15T12:21:16;101538.03;;;25.39
63689;BMP280;54895;40.928;14.480;2022-11-15T12:23:49;101530.19;;;25.20
63689;BMP280;54895;40.928;14.480;2022-11-15T12:26:20;101520.13;;;24.27
63689;BMP280;54895;40.928;14.480;2022-11-15T12:28:52;101526.91;;;23.94
63689;BMP280;54895;40.928;14.480;2022-11-15T12:36:46;101513.16;;;23.69
63689;BMP280;54895;40.928;14.480;2022-11-15T12:39:14;101508.72;;;23.85
63689;BMP280;54895;40.928;14.480;2022-11-15T12:59:58;101505.16;;;23.71
63689;BMP280;54895;40.928;14.480;2022-11-15T13:17:48;101499.22;;;23.63
63689;BMP280;54895;40.928;14.480;2022-11-15T13:20:17;101492.50;;;23.64
63689;BMP280;54895;40.928;14.480;2022-11-15T13:28:18;101478.78;;;23.62
63689;BMP280;54895;40.928;14.480;2022-11-15T13:30:50;101477.03;;;23.67
63689;BMP280;54895;40.928;14.480;2022-11-15T13:33:23;101466.38;;;23.59
63689;BMP280;54895;40.928;14.480;2022-11-15T13:35:53;101477.34;;;23.50
63689;BMP280;54895;40.928;14.480;2022-11-15T13:38:29;101483.41;;;23.60
63689;BMP280;54895;40.928;14.480;2022-11-15T13:40:57;101465.19;;;23.62
63689;BMP280;54895;40.928;14.480;2022-11-15T13:43:36;101471.25;;;23.72
63689;BMP280;54895;40.928;14.480;2022-11-15T13:46:23;101461.22;;;23.86
63689;BMP280;54895;40.928;14.480;2022-11-15T13:49:09;101452.22;;;23.72
63689;BMP280;54895;40.928;14.480;2022-11-15T13:51:54;101445.34;;;23.94
63689;BMP280;54895;40.928;14.480;2022-11-15T13:54:30;101447.97;;;24.38
63689;BMP280;54895;40.928;14.480;2022-11-15T13:57:10;101441.09;;;24.25
63689;BMP280;54895;40.928;14.480;2022-11-15T14:00:00;101441.91;;;24.39
63689;BMP280;54895;40.928;14.480;2022-11-15T14:02:38;101446.25;;;24.56
63689;BMP280;54895;40.928;14.480;2022-11-15T14:10:27;101445.84;;;23.79
63689;BMP280;54895;40.928;14.480;2022-11-15T14:12:54;101432.13;;;23.77
63689;BMP280;54895;40.928;14.480;2022-11-15T14:15:31;101438.28;;;24.12
63689;BMP280;54895;40.928;14.480;2022-11-15T14:17:58;101434.75;;;24.09
63689;BMP280;54895;40.928;14.480;2022-11-15T14:20:37;101438.28;;;23.89
63689;BMP280;54895;40.928;14.480;2022-11-15T14:23:25;101436.38;;;23.80
63689;BMP280;54895;40.928;14.480;2022-11-15T14:25:57;101427.75;;;23.61
63689;BMP280;54895;40.928;14.480;2022-11-15T14:30:51;101427.59;;;23.36
63689;BMP280;54895;40.928;14.480;2022-11-15T14:33:35;101421.66;;;23.28
63689;BMP280;54895;40.928;14.480;2022-11-15T14:36:13;101419.97;;;23.11
63689;BMP280;54895;40.928;14.480;2022-11-15T14:38:40;101428.38;;;22.73
63689;BMP280;54895;40.928;14.480;2022-11-15T14:41:18;101431.97;;;22.76
63689;BMP280;54895;40.928;14.480;2022-11-15T14:43:45;101430.00;;;22.88
63689;BMP280;54895;40.928;14.480;2022-11-15T14:46:11;101430.97;;;22.50
63689;BMP280;54895;40.928;14.480;2022-11-15T14:48:37;101426.91;;;22.40
63689;BMP280;54895;40.928;14.480;2022-11-15T14:51:11;101437.25;;;22.74
63689;BMP280;54895;40.928;14.480;2022-11-15T14:53:37;101423.66;;;22.95
63689;BMP280;54895;40.928;14.480;2022-11-15T14:56:04;101413.03;;;22.99
63689;BMP280;54895;40.928;14.480;2022-11-15T14:58:30;101416.97;;;22.75
63689;BMP280;54895;40.928;14.480;2022-11-15T15:00:56;101416.63;;;22.80
63689;BMP280;54895;40.928;14.480;2022-11-15T15:03:22;101398.91;;;22.79
63689;BMP280;54895;40.928;14.480;2022-11-15T15:09:47;101388.13;;;22.91
63689;BMP280;54895;40.928;14.480;2022-11-15T15:12:22;101394.03;;;23.31
63689;BMP280;54895;40.928;14.480;2022-11-15T15:14:50;101395.88;;;23.17
63689;BMP280;54895;40.928;14.480;2022-11-15T15:17:16;101388.59;;;22.87
63689;BMP280;54895;40.928;14.480;2022-11-15T15:19:43;101391.56;;;22.91
63689;BMP280;54895;40.928;14.480;2022-11-15T15:22:15;101378.47;;;22.67
63689;BMP280;54895;40.928;14.480;2022-11-15T15:24:43;101377.06;;;22.66
63689;BMP280;54895;40.928;14.480;2022-11-15T15:27:09;101378.28;;;22.32
63689;BMP280;54895;40.928;14.480;2022-11-15T15:29:36;101367.16;;;22.49
63689;BMP280;54895;40.928;14.480;2022-11-15T15:32:03;101382.97;;;22.32
63689;BMP280;54895;40.928;14.480;2022-11-15T15:34:29;101363.00;;;22.07
63689;BMP280;54895;40.928;14.480;2022-11-15T15:37:22;101361.59;;;22.06
63689;BMP280;54895;40.928;14.480;2022-11-15T15:39:53;101363.19;;;21.69
63689;BMP280;54895;40.928;14.480;2022-11-15T15:42:21;101360.19;;;21.55
63689;BMP280;54895;40.928;14.480;2022-11-15T15:44:48;101358.81;;;21.45
63689;BMP280;54895;40.928;14.480;2022-11-15T15:47:22;101370.50;;;21.47
63689;BMP280;54895;40.928;14.480;2022-11-15T15:49:49;101357.72;;;21.19
63689;BMP280;54895;40.928;14.480;2022-11-15T15:52:16;101361.88;;;21.11
63689;BMP280;54895;40.928;14.480;2022-11-15T15:54:43;101370.13;;;21.13
63689;BMP280;54895;40.928;14.480;2022-11-15T15:57:12;101373.41;;;21.21
63689;BMP280;54895;40.928;14.480;2022-11-15T15:59:38;101373.00;;;21.15
63689;BMP280;54895;40.928;14.480;2022-11-15T16:02:05;101377.09;;;21.25
63689;BMP280;54895;40.928;14.480;2022-11-15T16:04:32;101360.75;;;21.14
63689;BMP280;54895;40.928;14.480;2022-11-15T16:10:53;101359.03;;;21.09
63689;BMP280;54895;40.928;14.480;2022-11-15T16:13:19;101368.13;;;20.85
63689;BMP280;54895;40.928;14.480;2022-11-15T16:15:49;101355.91;;;21.03
63689;BMP280;54895;40.928;14.480;2022-11-15T16:18:17;101365.56;;;20.87
63689;BMP280;54895;40.928;14.480;2022-11-15T16:20:46;101360.47;;;20.91
63689;BMP280;54895;40.928;14.480;2022-11-15T16:23:17;101365.28;;;20.64
63689;BMP280;54895;40.928;14.480;2022-11-15T16:25:48;101360.91;;;20.87
63689;BMP280;54895;40.928;14.480;2022-11-15T16:28:29;101360.91;;;20.87
63689;BMP280;54895;40.928;14.480;2022-11-15T16:31:14;101352.63;;;21.14
63689;BMP280;54895;40.928;14.480;2022-11-15T16:33:40;101348.66;;;21.55
63689;BMP280;54895;40.928;14.480;2022-11-15T16:38:43;101364.06;;;22.23
63689;BMP280;54895;40.928;14.480;2022-11-15T16:41:09;101357.59;;;22.69
63689;BMP280;54895;40.928;14.480;2022-11-15T16:43:36;101365.72;;;22.69
63689;BMP280;54895;40.928;14.480;2022-11-15T16:46:07;101355.06;;;23.27
63689;BMP280;54895;40.928;14.480;2022-11-15T16:48:35;101351.53;;;23.70
63689;BMP280;54895;40.928;14.480;2022-11-15T16:51:02;101341.41;;;24.30
63689;BMP280;54895;40.928;14.480;2022-11-15T16:53:30;101349.56;;;24.80
63689;BMP280;54895;40.928;14.480;2022-11-15T16:55:56;101340.00;;;25.30
63689;BMP280;54895;40.928;14.480;2022-11-15T16:58:23;101323.97;;;25.23
63689;BMP280;54895;40.928;14.480;2022-11-15T17:00:54;101343.88;;;25.66
63689;BMP280;54895;40.928;14.480;2022-11-15T17:03:24;101339.25;;;25.41
63689;BMP280;54895;40.928;14.480;2022-11-15T17:05:51;101334.22;;;24.98
63689;BMP280;54895;40.928;14.480;2022-11-15T17:08:18;101341.53;;;25.33
63689;BMP280;54895;40.928;14.480;2022-11-15T17:10:47;101339.84;;;25.67
63689;BMP280;54895;40.928;14.480;2022-11-15T17:13:13;101335.38;;;25.73
63689;BMP280;54895;40.928;14.480;2022-11-15T17:15:39;101346.00;;;25.81
63689;BMP280;54895;40.928;14.480;2022-11-15T17:18:06;101343.81;;;26.20
63689;BMP280;54895;40.928;14.480;2022-11-15T17:20:32;101346.72;;;26.39
63689;BMP280;54895;40.928;14.480;2022-11-15T17:22:58;101350.69;;;26.80
63689;BMP280;54895;40.928;14.480;2022-11-15T17:25:25;101347.38;;;26.82
63689;BMP280;54895;40.928;14.480;2022-11-15T17:27:51;101333.09;;;26.83
63689;BMP280;54895;40.928;14.480;2022-11-15T17:30:18;101347.88;;;26.94
63689;BMP280;54895;40.928;14.480;2022-11-15T17:32:45;101346.47;;;26.93
63689;BMP280;54895;40.928;14.480;2022-11-15T17:35:12;101348.41;;;26.90